sensor_id;sensor_type;location;lat;lon;timestamp;pressure;altitude;pressure_sealevel;temperature;humidity
7532;BME280;3807;49.030;8.714;2022-12-07T00:00:26;99454.91;;;7.00;73.63
7532;BME280;3807;49.030;8.714;2022-12-07T00:02:51;99459.22;;;6.93;73.83
7532;BME280;3807;49.030;8.714;2022-12-07T00:05:16;99459.22;;;6.95;73.77
7532;BME280;3807;49.030;8.714;2022-12-07T00:07:42;99455.81;;;6.96;73.75
7532;BME280;3807;49.030;8.714;2022-12-07T00:10:07;99455.03;;;6.92;73.93
7532;BME280;3807;49.030;8.714;2022-12-07T00:12:33;99452.50;;;6.94;73.82
7532;BME280;3807;49.030;8.714;2022-12-07T00:14:58;99449.06;;;6.97;73.74
7532;BME280;3807;49.030;8.714;2022-12-07T00:17:23;99447.47;;;6.91;73.93
7532;BME280;3807;49.030;8.714;2022-12-07T00:19:49;99451.69;;;6.92;73.85
7532;BME280;3807;49.030;8.714;2022-12-07T00:22:14;99454.28;;;6.86;74.06
7532;BME280;3807;49.030;8.714;2022-12-07T00:24:39;99445.72;;;6.95;73.77
7532;BME280;3807;49.030;8.714;2022-12-07T00:27:04;99455.06;;;6.91;73.89
7532;BME280;3807;49.030;8.714;2022-12-07T00:29:30;99447.47;;;6.91;73.83
7532;BME280;3807;49.030;8.714;2022-12-07T00:31:55;99446.56;;;6.95;73.60
7532;BME280;3807;49.030;8.714;2022-12-07T00:34:21;99443.25;;;6.91;73.77
7532;BME280;3807;49.030;8.714;2022-12-07T00:36:46;99442.38;;;6.94;73.55
7532;BME280;3807;49.030;8.714;2022-12-07T00:39:12;99440.72;;;6.91;73.70
7532;BME280;3807;49.030;8.714;2022-12-07T00:41:37;99455.03;;;6.92;73.69
7532;BME280;3807;49.030;8.714;2022-12-07T00:44:02;99441.59;;;6.89;73.76
7532;BME280;3807;49.030;8.714;2022-12-07T00:46:28;99444.91;;;6.92;73.63
7532;BME280;3807;49.030;8.714;2022-12-07T00:48:54;99445.00;;;6.88;73.82
7532;BME280;3807;49.030;8.714;2022-12-07T00:51:21;99444.94;;;6.89;73.70
7532;BME280;3807;49.030;8.714;2022-12-07T00:53:47;99442.41;;;6.91;73.61
7532;BME280;3807;49.030;8.714;2022-12-07T00:56:20;99439.94;;;6.88;73.74
7532;BME280;3807;49.030;8.714;2022-12-07T00:58:53;99438.22;;;6.88;73.63
7532;BME280;3807;49.030;8.714;2022-12-07T01:01:20;99437.31;;;6.92;73.46
7532;BME280;3807;49.030;8.714;2022-12-07T01:03:46;99445.75;;;6.93;73.45
7532;BME280;3807;49.030;8.714;2022-12-07T01:06:15;99444.22;;;6.84;73.86
7532;BME280;3807;49.030;8.714;2022-12-07T01:08:40;99447.53;;;6.88;73.56
7532;BME280;3807;49.030;8.714;2022-12-07T01:11:07;99450.88;;;6.88;73.48
7532;BME280;3807;49.030;8.714;2022-12-07T01:13:34;99442.47;;;6.86;73.60
7532;BME280;3807;49.030;8.714;2022-12-07T01:16:03;99443.34;;;6.85;73.68
7532;BME280;3807;49.030;8.714;2022-12-07T01:18:29;99436.63;;;6.84;73.73
7532;BME280;3807;49.030;8.714;2022-12-07T01:21:05;99438.31;;;6.84;73.67
7532;BME280;3807;49.030;8.714;2022-12-07T01:23:32;99439.94;;;6.88;73.47
7532;BME280;3807;49.030;8.714;2022-12-07T01:26:00;99440.03;;;6.82;73.68
7532;BME280;3807;49.030;8.714;2022-12-07T01:28:26;99445.13;;;6.79;73.79
7532;BME280;3807;49.030;8.714;2022-12-07T01:31:06;99453.56;;;6.79;73.74
7532;BME280;3807;49.030;8.714;2022-12-07T01:33:34;99459.50;;;6.78;73.81
7532;BME280;3807;49.030;8.714;2022-12-07T01:36:22;99461.09;;;6.84;73.58
7532;BME280;3807;49.030;8.714;2022-12-07T01:38:48;99454.34;;;6.83;73.50
7532;BME280;3807;49.030;8.714;2022-12-07T01:41:16;99452.78;;;6.76;73.73
7532;BME280;3807;49.030;8.714;2022-12-07T01:46:45;99457.00;;;6.75;73.81
7532;BME280;3807;49.030;8.714;2022-12-07T01:49:16;99454.38;;;6.81;73.55
7532;BME280;3807;49.030;8.714;2022-12-07T01:51:43;99458.66;;;6.76;73.65
7532;BME280;3807;49.030;8.714;2022-12-07T01:54:11;99458.63;;;6.79;73.60
7532;BME280;3807;49.030;8.714;2022-12-07T01:56:40;99451.06;;;6.76;73.66
7532;BME280;3807;49.030;8.714;2022-12-07T01:59:07;99443.44;;;6.79;73.50
7532;BME280;3807;49.030;8.714;2022-12-07T02:01:33;99447.63;;;6.82;73.24
7532;BME280;3807;49.030;8.714;2022-12-07T02:03:58;99445.13;;;6.80;73.34
7532;BME280;3807;49.030;8.714;2022-12-07T02:06:25;99435.84;;;6.81;73.36
7532;BME280;3807;49.030;8.714;2022-12-07T02:08:51;99441.81;;;6.75;73.45
7532;BME280;3807;49.030;8.714;2022-12-07T02:11:17;99444.47;;;6.67;73.82
7532;BME280;3807;49.030;8.714;2022-12-07T02:13:44;99429.31;;;6.66;73.84
7532;BME280;3807;49.030;8.714;2022-12-07T02:29:47;99413.63;;;6.46;74.59
7532;BME280;3807;49.030;8.714;2022-12-07T02:40:25;99410.12;;;6.53;74.41
7532;BME280;3807;49.030;8.714;2022-12-07T02:43:26;99413.50;;;6.52;74.21
7532;BME280;3807;49.030;8.714;2022-12-07T02:45:56;99416.88;;;6.52;74.14
7532;BME280;3807;49.030;8.714;2022-12-07T02:48:24;99417.75;;;6.50;74.28
7532;BME280;3807;49.030;8.714;2022-12-07T02:50:53;99415.97;;;6.56;73.93
7532;BME280;3807;49.030;8.714;2022-12-07T02:53:48;99426.09;;;6.56;74.03
7532;BME280;3807;49.030;8.714;2022-12-07T02:56:21;99425.22;;;6.57;73.87
7532;BME280;3807;49.030;8.714;2022-12-07T03:06:53;99407.66;;;6.50;74.05
7532;BME280;3807;49.030;8.714;2022-12-07T03:09:34;99409.31;;;6.52;73.94
7532;BME280;3807;49.030;8.714;2022-12-07T03:12:12;99396.88;;;6.37;74.59
7532;BME280;3807;49.030;8.714;2022-12-07T03:14:43;99399.34;;;6.40;74.34
7532;BME280;3807;49.030;8.714;2022-12-07T03:17:33;99392.75;;;6.30;74.88
7532;BME280;3807;49.030;8.714;2022-12-07T03:20:02;99390.94;;;6.38;74.64
7532;BME280;3807;49.030;8.714;2022-12-07T03:22:31;99384.37;;;6.26;75.15
7532;BME280;3807;49.030;8.714;2022-12-07T03:24:59;99390.09;;;6.39;74.44
7532;BME280;3807;49.030;8.714;2022-12-07T03:27:31;99391.72;;;6.43;74.40
7532;BME280;3807;49.030;8.714;2022-12-07T03:30:17;99382.31;;;6.53;73.79
7532;BME280;3807;49.030;8.714;2022-12-07T03:32:49;99376.56;;;6.41;74.20
7532;BME280;3807;49.030;8.714;2022-12-07T03:35:32;99385.63;;;6.56;73.68
7532;BME280;3807;49.030;8.714;2022-12-07T03:38:16;99389.84;;;6.54;73.77
7532;BME280;3807;49.030;8.714;2022-12-07T03:40:48;99396.69;;;6.49;73.81
7532;BME280;3807;49.030;8.714;2022-12-07T03:43:15;99393.34;;;6.47;73.97
7532;BME280;3807;49.030;8.714;2022-12-07T03:45:44;99401.84;;;6.43;74.09
7532;BME280;3807;49.030;8.714;2022-12-07T03:48:29;99396.63;;;6.54;73.70
7532;BME280;3807;49.030;8.714;2022-12-07T03:53:53;99389.94;;;6.50;73.69
7532;BME280;3807;49.030;8.714;2022-12-07T03:56:21;99385.84;;;6.42;73.90
7532;BME280;3807;49.030;8.714;2022-12-07T03:58:48;99385.78;;;6.46;73.84
7532;BME280;3807;49.030;8.714;2022-12-07T04:01:14;99381.63;;;6.41;73.85
7532;BME280;3807;49.030;8.714;2022-12-07T04:03:39;99385.72;;;6.50;73.60
7532;BME280;3807;49.030;8.714;2022-12-07T04:06:05;99386.63;;;6.46;73.57
7532;BME280;3807;49.030;8.714;2022-12-07T04:08:30;99393.44;;;6.41;73.97
7532;BME280;3807;49.030;8.714;2022-12-07T04:10:56;99393.38;;;6.46;73.71
7532;BME280;3807;49.030;8.714;2022-12-07T04:13:21;99394.25;;;6.43;73.73
7532;BME280;3807;49.030;8.714;2022-12-07T04:15:46;99393.34;;;6.49;73.68
7532;BME280;3807;49.030;8.714;2022-12-07T04:18:11;99389.94;;;6.50;73.42
7532;BME280;3807;49.030;8.714;2022-12-07T04:20:37;99389.94;;;6.50;73.34
7532;BME280;3807;49.030;8.714;2022-12-07T04:23:02;99390.84;;;6.46;73.52
7532;BME280;3807;49.030;8.714;2022-12-07T04:25:28;99397.66;;;6.40;73.68
7532;BME280;3807;49.030;8.714;2022-12-07T04:27:53;99391.69;;;6.44;73.60
7532;BME280;3807;49.030;8.714;2022-12-07T04:30:19;99393.38;;;6.44;73.50
7532;BME280;3807;49.030;8.714;2022-12-07T04:32:44;99377.47;;;6.39;73.64
7532;BME280;3807;49.030;8.714;2022-12-07T04:35:09;99383.41;;;6.36;73.79
7532;BME280;3807;49.030;8.714;2022-12-07T04:37:35;99391.72;;;6.43;73.47
7532;BME280;3807;49.030;8.714;2022-12-07T04:40:00;99383.44;;;6.35;73.73
7532;BME280;3807;49.030;8.714;2022-12-07T04:42:25;99383.44;;;6.35;74.01
7532;BME280;3807;49.030;8.714;2022-12-07T04:44:51;99386.78;;;6.34;73.75
7532;BME280;3807;49.030;8.714;2022-12-07T04:47:16;99393.47;;;6.38;73.67
7532;BME280;3807;49.030;8.714;2022-12-07T04:49:42;99385.00;;;6.42;73.43
7532;BME280;3807;49.030;8.714;2022-12-07T04:52:07;99380.00;;;6.39;73.46
7532;BME280;3807;49.030;8.714;2022-12-07T04:54:32;99379.94;;;6.40;73.33
7532;BME280;3807;49.030;8.714;2022-12-07T04:56:57;99382.53;;;6.39;73.38
7532;BME280;3807;49.030;8.714;2022-12-07T04:59:23;99385.78;;;6.44;73.26
7532;BME280;3807;49.030;8.714;2022-12-07T05:01:48;99385.75;;;6.47;73.11
7532;BME280;3807;49.030;8.714;2022-12-07T05:04:13;99388.53;;;6.32;73.57
7532;BME280;3807;49.030;8.714;2022-12-07T05:06:41;99377.91;;;6.08;74.52
7532;BME280;3807;49.030;8.714;2022-12-07T05:09:06;99385.38;;;6.16;74.32
7532;BME280;3807;49.030;8.714;2022-12-07T05:11:31;99377.72;;;6.20;74.11
7532;BME280;3807;49.030;8.714;2022-12-07T05:14:05;99383.59;;;6.24;73.95
7532;BME280;3807;49.030;8.714;2022-12-07T05:16:31;99372.72;;;6.17;74.20
7532;BME280;3807;49.030;8.714;2022-12-07T05:18:56;99375.41;;;6.05;74.62
7532;BME280;3807;49.030;8.714;2022-12-07T05:21:22;99373.63;;;6.12;74.34
7532;BME280;3807;49.030;8.714;2022-12-07T05:23:48;99372.22;;;5.94;74.90
7532;BME280;3807;49.030;8.714;2022-12-07T05:26:13;99372.19;;;5.95;75.03
7532;BME280;3807;49.030;8.714;2022-12-07T05:28:38;99369.41;;;6.12;74.32
7532;BME280;3807;49.030;8.714;2022-12-07T05:31:04;99369.56;;;6.02;74.77
7532;BME280;3807;49.030;8.714;2022-12-07T05:33:29;99372.78;;;6.13;74.28
7532;BME280;3807;49.030;8.714;2022-12-07T05:35:54;99378.22;;;5.84;75.00
7532;BME280;3807;49.030;8.714;2022-12-07T05:38:20;99374.22;;;5.67;75.57
7532;BME280;3807;49.030;8.714;2022-12-07T05:40:45;99365.62;;;5.81;75.49
7532;BME280;3807;49.030;8.714;2022-12-07T05:43:10;99370.09;;;5.62;75.47
7532;BME280;3807;49.030;8.714;2022-12-07T05:45:36;99368.44;;;5.59;75.85
7532;BME280;3807;49.030;8.714;2022-12-07T05:48:02;99362.78;;;6.07;74.53
7532;BME280;3807;49.030;8.714;2022-12-07T05:50:27;99370.22;;;6.16;74.02
7532;BME280;3807;49.030;8.714;2022-12-07T05:52:53;99378.94;;;5.96;74.62
7532;BME280;3807;49.030;8.714;2022-12-07T05:55:19;99372.50;;;5.68;75.35
7532;BME280;3807;49.030;8.714;2022-12-07T05:57:44;99372.06;;;5.35;76.61
7532;BME280;3807;49.030;8.714;2022-12-07T06:00:30;99363.38;;;5.58;76.31
7532;BME280;3807;49.030;8.714;2022-12-07T06:02:55;99364.62;;;5.92;75.05
7532;BME280;3807;49.030;8.714;2022-12-07T06:05:20;99362.44;;;5.66;75.04
7532;BME280;3807;49.030;8.714;2022-12-07T06:07:46;99366.00;;;5.50;76.08
7532;BME280;3807;49.030;8.714;2022-12-07T06:10:11;99361.78;;;5.50;76.01
7532;BME280;3807;49.030;8.714;2022-12-07T06:12:36;99361.59;;;5.64;75.68
7532;BME280;3807;49.030;8.714;2022-12-07T06:15:05;99359.63;;;5.89;74.88
7532;BME280;3807;49.030;8.714;2022-12-07T06:17:30;99366.25;;;5.98;74.47
7532;BME280;3807;49.030;8.714;2022-12-07T06:19:55;99363.56;;;6.10;73.94
7532;BME280;3807;49.030;8.714;2022-12-07T06:22:21;99365.38;;;6.01;73.85
7532;BME280;3807;49.030;8.714;2022-12-07T06:24:46;99368.31;;;5.68;74.52
7532;BME280;3807;49.030;8.714;2022-12-07T06:27:12;99375.66;;;5.85;74.76
7532;BME280;3807;49.030;8.714;2022-12-07T06:29:37;99375.66;;;5.85;74.43
7532;BME280;3807;49.030;8.714;2022-12-07T06:32:03;99374.28;;;5.63;75.40
7532;BME280;3807;49.030;8.714;2022-12-07T06:34:30;99367.38;;;5.76;74.76
7532;BME280;3807;49.030;8.714;2022-12-07T06:36:55;99371.25;;;5.35;75.79
7532;BME280;3807;49.030;8.714;2022-12-07T06:39:23;99373.69;;;5.44;75.57
7532;BME280;3807;49.030;8.714;2022-12-07T06:41:50;99372.44;;;5.74;75.31
7532;BME280;3807;49.030;8.714;2022-12-07T06:44:17;99371.69;;;5.67;74.47
7532;BME280;3807;49.030;8.714;2022-12-07T06:46:42;99374.81;;;5.85;74.21
7532;BME280;3807;49.030;8.714;2022-12-07T06:49:07;99379.88;;;5.86;74.56
7532;BME280;3807;49.030;8.714;2022-12-07T06:51:33;99371.69;;;5.67;74.84
7532;BME280;3807;49.030;8.714;2022-12-07T06:54:02;99373.81;;;5.32;75.85
7532;BME280;3807;49.030;8.714;2022-12-07T06:56:27;99368.13;;;5.13;76.42
7532;BME280;3807;49.030;8.714;2022-12-07T06:58:53;99357.34;;;4.97;76.95
7532;BME280;3807;49.030;8.714;2022-12-07T07:01:19;99364.59;;;5.28;77.13
7532;BME280;3807;49.030;8.714;2022-12-07T07:03:46;99370.31;;;5.42;76.13
7532;BME280;3807;49.030;8.714;2022-12-07T07:06:13;99366.13;;;5.41;75.13
7532;BME280;3807;49.030;8.714;2022-12-07T07:08:39;99374.28;;;5.63;74.96
7532;BME280;3807;49.030;8.714;2022-12-07T07:11:06;99373.78;;;5.33;75.33
7532;BME280;3807;49.030;8.714;2022-12-07T07:13:31;99374.47;;;5.46;75.05
7532;BME280;3807;49.030;8.714;2022-12-07T07:15:57;99370.44;;;5.31;75.36
7532;BME280;3807;49.030;8.714;2022-12-07T07:18:22;99373.75;;;5.38;76.10
7532;BME280;3807;49.030;8.714;2022-12-07T07:20:50;99377.16;;;5.34;75.39
7532;BME280;3807;49.030;8.714;2022-12-07T07:23:15;99372.75;;;5.51;74.80
7532;BME280;3807;49.030;8.714;2022-12-07T07:25:40;99367.72;;;5.48;74.81
7532;BME280;3807;49.030;8.714;2022-12-07T07:28:06;99373.88;;;5.27;75.04
7532;BME280;3807;49.030;8.714;2022-12-07T07:30:31;99378.31;;;5.74;74.25
7532;BME280;3807;49.030;8.714;2022-12-07T07:33:00;99386.03;;;5.65;74.15
7532;BME280;3807;49.030;8.714;2022-12-07T07:35:27;99381.13;;;5.55;74.04
7532;BME280;3807;49.030;8.714;2022-12-07T07:37:53;99387.97;;;5.45;74.94
7532;BME280;3807;49.030;8.714;2022-12-07T07:40:18;99380.31;;;5.51;74.91
7532;BME280;3807;49.030;8.714;2022-12-07T07:42:47;99386.06;;;5.61;74.24
7532;BME280;3807;49.030;8.714;2022-12-07T07:45:12;99377.69;;;5.59;74.36
7532;BME280;3807;49.030;8.714;2022-12-07T07:47:38;99389.44;;;5.61;74.61
7532;BME280;3807;49.030;8.714;2022-12-07T07:50:03;99388.44;;;5.76;73.87
7532;BME280;3807;49.030;8.714;2022-12-07T07:52:29;99398.56;;;5.71;73.99
7532;BME280;3807;49.030;8.714;2022-12-07T07:54:54;99392.72;;;5.68;73.90
7532;BME280;3807;49.030;8.714;2022-12-07T07:57:19;99392.72;;;5.69;73.52
7532;BME280;3807;49.030;8.714;2022-12-07T07:59:45;99392.84;;;5.59;74.00
7532;BME280;3807;49.030;8.714;2022-12-07T08:02:15;99398.59;;;5.70;73.88
7532;BME280;3807;49.030;8.714;2022-12-07T08:04:41;99396.91;;;5.70;73.31
7532;BME280;3807;49.030;8.714;2022-12-07T08:07:06;99395.91;;;5.84;73.43
7532;BME280;3807;49.030;8.714;2022-12-07T08:09:31;99407.81;;;5.74;73.17
7532;BME280;3807;49.030;8.714;2022-12-07T08:11:57;99404.56;;;5.64;74.27
7532;BME280;3807;49.030;8.714;2022-12-07T08:14:24;99404.97;;;5.29;75.00
7532;BME280;3807;49.030;8.714;2022-12-07T08:16:49;99406.16;;;4.91;75.61
7532;BME280;3807;49.030;8.714;2022-12-07T08:19:14;99407.06;;;4.89;76.40
7532;BME280;3807;49.030;8.714;2022-12-07T08:21:40;99406.31;;;4.76;76.50
7532;BME280;3807;49.030;8.714;2022-12-07T08:24:05;99412.00;;;4.98;76.26
7532;BME280;3807;49.030;8.714;2022-12-07T08:26:30;99406.72;;;5.22;75.23
7532;BME280;3807;49.030;8.714;2022-12-07T08:28:56;99410.50;;;5.62;74.65
7532;BME280;3807;49.030;8.714;2022-12-07T08:31:21;99414.16;;;5.33;75.58
7532;BME280;3807;49.030;8.714;2022-12-07T08:33:47;99416.91;;;5.15;76.13
7532;BME280;3807;49.030;8.714;2022-12-07T08:36:13;99417.47;;;5.41;75.06
7532;BME280;3807;49.030;8.714;2022-12-07T08:38:40;99410.28;;;5.79;74.00
7532;BME280;3807;49.030;8.714;2022-12-07T08:41:07;99423.03;;;5.69;73.93
7532;BME280;3807;49.030;8.714;2022-12-07T08:43:32;99421.59;;;5.48;75.90
7532;BME280;3807;49.030;8.714;2022-12-07T08:46:17;99427.38;;;5.57;75.19
7532;BME280;3807;49.030;8.714;2022-12-07T08:48:58;99428.09;;;5.68;74.53
7532;BME280;3807;49.030;8.714;2022-12-07T08:51:24;99424.94;;;5.50;74.71
7532;BME280;3807;49.030;8.714;2022-12-07T08:53:51;99426.50;;;5.62;74.96
7532;BME280;3807;49.030;8.714;2022-12-07T08:56:17;99429.53;;;5.90;73.91
7532;BME280;3807;49.030;8.714;2022-12-07T08:58:43;99433.78;;;5.87;74.08
7532;BME280;3807;49.030;8.714;2022-12-07T09:01:09;99433.94;;;5.73;74.26
7532;BME280;3807;49.030;8.714;2022-12-07T09:03:35;99437.91;;;5.97;73.71
7532;BME280;3807;49.030;8.714;2022-12-07T09:06:00;99442.13;;;5.95;73.75
7532;BME280;3807;49.030;8.714;2022-12-07T09:08:32;99437.91;;;5.95;73.71
7532;BME280;3807;49.030;8.714;2022-12-07T09:10:59;99435.47;;;5.85;73.78
7532;BME280;3807;49.030;8.714;2022-12-07T09:13:24;99437.00;;;6.01;73.60
7532;BME280;3807;49.030;8.714;2022-12-07T09:15:49;99431.06;;;6.04;73.56
7532;BME280;3807;49.030;8.714;2022-12-07T09:18:14;99434.69;;;5.83;74.51
7532;BME280;3807;49.030;8.714;2022-12-07T09:20:40;99434.44;;;6.03;73.55
7532;BME280;3807;49.030;8.714;2022-12-07T09:23:06;99438.84;;;5.87;74.00
7532;BME280;3807;49.030;8.714;2022-12-07T09:25:33;99438.72;;;5.96;74.04
7532;BME280;3807;49.030;8.714;2022-12-07T09:27:58;99431.88;;;6.06;73.43
7532;BME280;3807;49.030;8.714;2022-12-07T09:30:24;99441.31;;;5.88;74.43
7532;BME280;3807;49.030;8.714;2022-12-07T09:32:52;99438.72;;;5.97;73.96
7532;BME280;3807;49.030;8.714;2022-12-07T09:35:18;99443.91;;;5.82;74.69
7532;BME280;3807;49.030;8.714;2022-12-07T09:37:43;99437.00;;;6.01;74.11
7532;BME280;3807;49.030;8.714;2022-12-07T09:40:09;99439.81;;;5.73;75.21
7532;BME280;3807;49.030;8.714;2022-12-07T09:42:38;99439.19;;;5.56;76.00
7532;BME280;3807;49.030;8.714;2022-12-07T09:45:15;99441.06;;;5.39;76.28
7532;BME280;3807;49.030;8.714;2022-12-07T09:47:42;99437.59;;;5.49;76.38
7532;BME280;3807;49.030;8.714;2022-12-07T09:50:14;99432.34;;;5.64;75.73
7532;BME280;3807;49.030;8.714;2022-12-07T09:52:43;99437.34;;;5.72;75.70
7532;BME280;3807;49.030;8.714;2022-12-07T09:55:16;99435.66;;;5.69;75.81
7532;BME280;3807;49.030;8.714;2022-12-07T09:57:42;99434.12;;;5.56;76.18
7532;BME280;3807;49.030;8.714;2022-12-07T10:00:19;99424.72;;;5.69;75.96
7532;BME280;3807;49.030;8.714;2022-12-07T10:02:49;99418.12;;;5.59;76.31
7532;BME280;3807;49.030;8.714;2022-12-07T10:05:19;99421.44;;;5.61;76.14
7532;BME280;3807;49.030;8.714;2022-12-07T10:07:46;99423.50;;;6.02;74.79
7532;BME280;3807;49.030;8.714;2022-12-07T10:10:18;99420.84;;;6.10;74.89
7532;BME280;3807;49.030;8.714;2022-12-07T10:12:57;99422.56;;;6.09;75.00
7532;BME280;3807;49.030;8.714;2022-12-07T10:15:23;99417.38;;;6.18;74.26
7532;BME280;3807;49.030;8.714;2022-12-07T10:18:01;99409.31;;;5.90;75.43
7532;BME280;3807;49.030;8.714;2022-12-07T10:20:27;99416.31;;;5.68;76.02
7532;BME280;3807;49.030;8.714;2022-12-07T10:25:30;99405.87;;;5.96;75.32
7532;BME280;3807;49.030;8.714;2022-12-07T10:28:18;99400.75;;;6.02;75.16
7532;BME280;3807;49.030;8.714;2022-12-07T10:30:56;99407.91;;;5.66;75.98
7532;BME280;3807;49.030;8.714;2022-12-07T10:35:56;99408.41;;;5.96;75.57
7532;BME280;3807;49.030;8.714;2022-12-07T10:38:21;99408.22;;;6.10;74.83
7532;BME280;3807;49.030;8.714;2022-12-07T10:40:46;99399.41;;;6.37;74.00
7532;BME280;3807;49.030;8.714;2022-12-07T10:54:39;99380.62;;;5.91;75.87
7532;BME280;3807;49.030;8.714;2022-12-07T11:05:24;99375.53;;;5.97;75.45
7532;BME280;3807;49.030;8.714;2022-12-07T11:07:59;99370.72;;;6.38;74.70
7532;BME280;3807;49.030;8.714;2022-12-07T11:20:51;99359.09;;;6.26;74.78
7532;BME280;3807;49.030;8.714;2022-12-07T11:28:53;99354.97;;;6.20;75.05
7532;BME280;3807;49.030;8.714;2022-12-07T11:31:26;99347.25;;;6.30;74.75
7532;BME280;3807;49.030;8.714;2022-12-07T11:36:44;99350.19;;;6.02;75.05
7532;BME280;3807;49.030;8.714;2022-12-07T11:41:48;99346.28;;;6.37;74.59
7532;BME280;3807;49.030;8.714;2022-12-07T11:44:33;99349.06;;;6.22;74.04
7532;BME280;3807;49.030;8.714;2022-12-07T11:49:49;99349.56;;;5.85;76.06
7532;BME280;3807;49.030;8.714;2022-12-07T11:52:26;99340.69;;;6.18;75.08
7532;BME280;3807;49.030;8.714;2022-12-07T11:54:53;99334.22;;;6.00;74.71
7532;BME280;3807;49.030;8.714;2022-12-07T11:57:35;99331.37;;;6.22;74.93
7532;BME280;3807;49.030;8.714;2022-12-07T12:00:06;99323.34;;;5.93;75.07
7532;BME280;3807;49.030;8.714;2022-12-07T12:02:47;99323.88;;;6.15;74.37
7532;BME280;3807;49.030;8.714;2022-12-07T12:05:16;99316.53;;;5.99;74.70
7532;BME280;3807;49.030;8.714;2022-12-07T12:07:42;99315.69;;;5.98;74.64
7532;BME280;3807;49.030;8.714;2022-12-07T12:10:41;99316.78;;;5.79;75.53
7532;BME280;3807;49.030;8.714;2022-12-07T12:16:11;99320.81;;;6.48;74.21
7532;BME280;3807;49.030;8.714;2022-12-07T12:21:20;99316.94;;;6.28;73.62
7532;BME280;3807;49.030;8.714;2022-12-07T12:23:58;99308.03;;;6.03;74.72
7532;BME280;3807;49.030;8.714;2022-12-07T12:26:27;99311.97;;;6.20;74.55
7532;BME280;3807;49.030;8.714;2022-12-07T12:29:27;99305.22;;;6.23;73.92
7532;BME280;3807;49.030;8.714;2022-12-07T12:32:17;99306.41;;;6.51;74.21
7532;BME280;3807;49.030;8.714;2022-12-07T12:37:39;99309.44;;;6.20;74.67
7532;BME280;3807;49.030;8.714;2022-12-07T12:42:57;99300.84;;;6.32;73.75
7532;BME280;3807;49.030;8.714;2022-12-07T12:45:28;99303.59;;;6.18;74.71
7532;BME280;3807;49.030;8.714;2022-12-07T12:48:03;99299.69;;;6.50;74.14
7532;BME280;3807;49.030;8.714;2022-12-07T12:50:37;99305.28;;;6.67;73.68
7532;BME280;3807;49.030;8.714;2022-12-07T13:01:30;99300.09;;;6.26;75.01
7532;BME280;3807;49.030;8.714;2022-12-07T13:03:34;99298.09;;;5.93;75.85
7532;BME280;3807;49.030;8.714;2022-12-07T13:06:34;99295.41;;;6.04;75.64
7532;BME280;3807;49.030;8.714;2022-12-07T13:09:01;99288.00;;;5.89;75.75
7532;BME280;3807;49.030;8.714;2022-12-07T13:11:37;99282.28;;;6.33;75.16
7532;BME280;3807;49.030;8.714;2022-12-07T13:14:57;99279.59;;;6.42;74.00
7532;BME280;3807;49.030;8.714;2022-12-07T13:19:57;99283.41;;;6.15;74.89
7532;BME280;3807;49.030;8.714;2022-12-07T13:25:19;99272.00;;;6.42;74.23
7532;BME280;3807;49.030;8.714;2022-12-07T13:27:56;99270.63;;;6.23;75.32
7532;BME280;3807;49.030;8.714;2022-12-07T13:30:23;99268.16;;;6.22;75.62
7532;BME280;3807;49.030;8.714;2022-12-07T13:32:54;99263.09;;;6.22;74.95
7532;BME280;3807;49.030;8.714;2022-12-07T13:35:28;99257.00;;;5.79;76.23
7532;BME280;3807;49.030;8.714;2022-12-07T13:37:53;99263.03;;;6.25;75.36
7532;BME280;3807;49.030;8.714;2022-12-07T13:40:21;99261.53;;;6.14;75.66
7532;BME280;3807;49.030;8.714;2022-12-07T13:42:47;99257.06;;;6.29;75.24
7532;BME280;3807;49.030;8.714;2022-12-07T13:45:24;99265.56;;;6.25;75.02
7532;BME280;3807;49.030;8.714;2022-12-07T13:48:13;99256.59;;;6.05;75.91
7532;BME280;3807;49.030;8.714;2022-12-07T13:50:39;99248.31;;;5.97;76.49
7532;BME280;3807;49.030;8.714;2022-12-07T13:53:11;99255.47;;;6.25;75.52
7532;BME280;3807;49.030;8.714;2022-12-07T13:55:44;99252.69;;;6.37;74.75
7532;BME280;3807;49.030;8.714;2022-12-07T13:58:11;99258.97;;;6.16;75.68
7532;BME280;3807;49.030;8.714;2022-12-07T14:00:36;99250.91;;;5.94;75.99
7532;BME280;3807;49.030;8.714;2022-12-07T14:05:37;99259.28;;;6.47;74.69
7532;BME280;3807;49.030;8.714;2022-12-07T14:08:05;99251.03;;;5.82;76.03
7532;BME280;3807;49.030;8.714;2022-12-07T14:10:39;99252.94;;;6.25;75.27
7532;BME280;3807;49.030;8.714;2022-12-07T14:13:30;99261.81;;;6.47;74.63
7532;BME280;3807;49.030;8.714;2022-12-07T14:15:56;99263.34;;;6.56;74.53
7532;BME280;3807;49.030;8.714;2022-12-07T14:18:44;99260.94;;;6.48;74.02
7532;BME280;3807;49.030;8.714;2022-12-07T14:23:35;99259.38;;;6.41;74.28
7532;BME280;3807;49.030;8.714;2022-12-07T14:26:14;99258.78;;;6.27;75.34
7532;BME280;3807;49.030;8.714;2022-12-07T14:28:42;99254.34;;;5.87;76.27
7532;BME280;3807;49.030;8.714;2022-12-07T14:31:12;99259.56;;;5.76;76.69
7532;BME280;3807;49.030;8.714;2022-12-07T14:33:38;99256.66;;;6.04;76.18
7532;BME280;3807;49.030;8.714;2022-12-07T14:36:04;99259.59;;;6.29;74.96
7532;BME280;3807;49.030;8.714;2022-12-07T14:38:30;99264.38;;;6.44;74.79
7532;BME280;3807;49.030;8.714;2022-12-07T14:40:55;99263.66;;;6.37;74.88
7532;BME280;3807;49.030;8.714;2022-12-07T14:43:41;99252.84;;;6.29;75.21
7532;BME280;3807;49.030;8.714;2022-12-07T14:46:06;99257.66;;;6.43;74.46
7532;BME280;3807;49.030;8.714;2022-12-07T14:48:32;99251.91;;;6.80;73.48
7532;BME280;3807;49.030;8.714;2022-12-07T14:50:57;99261.84;;;6.46;73.91
7532;BME280;3807;49.030;8.714;2022-12-07T14:53:28;99253.56;;;6.34;75.08
7532;BME280;3807;49.030;8.714;2022-12-07T14:55:54;99260.09;;;6.49;74.23
7532;BME280;3807;49.030;8.714;2022-12-07T14:58:20;99256.59;;;6.55;74.26
7532;BME280;3807;49.030;8.714;2022-12-07T15:00:45;99264.44;;;6.41;73.81
7532;BME280;3807;49.030;8.714;2022-12-07T15:03:12;99264.13;;;6.59;74.23
7532;BME280;3807;49.030;8.714;2022-12-07T15:05:38;99260.78;;;6.57;73.69
7532;BME280;3807;49.030;8.714;2022-12-07T15:08:04;99257.75;;;6.37;74.81
7532;BME280;3807;49.030;8.714;2022-12-07T15:10:33;99259.00;;;6.13;75.04
7532;BME280;3807;49.030;8.714;2022-12-07T15:13:00;99256.75;;;6.47;74.42
7532;BME280;3807;49.030;8.714;2022-12-07T15:15:55;99255.09;;;6.44;74.06
7532;BME280;3807;49.030;8.714;2022-12-07T15:18:22;99267.13;;;6.78;73.70
7532;BME280;3807;49.030;8.714;2022-12-07T15:20:49;99260.38;;;6.79;73.10
7532;BME280;3807;49.030;8.714;2022-12-07T15:23:15;99249.78;;;6.60;73.55
7532;BME280;3807;49.030;8.714;2022-12-07T15:25:41;99262.28;;;6.67;73.81
7532;BME280;3807;49.030;8.714;2022-12-07T15:28:07;99252.16;;;6.67;73.76
7532;BME280;3807;49.030;8.714;2022-12-07T15:30:32;99255.50;;;6.70;73.46
7532;BME280;3807;49.030;8.714;2022-12-07T15:32:57;99246.22;;;6.68;73.33
7532;BME280;3807;49.030;8.714;2022-12-07T15:35:23;99250.03;;;6.46;73.79